LBSFLGSK

Guest
Details From LBSF - Sofia
To LGSK - Skiathos Alexandros Papadiamantis
Flight Number -
Tags generated
Created
Modified
Stats Distance 213 nm / 394 km
Max Altitude 24,500 ft / 7,468 m
Waypoints 4
Social Downloads 23
Likes 0
Share

Download

Looking for another format? Having issues loading an existing format? Contact us
Advertisement - Login to hide

Notes

Basic altitude profile: - Ascent Rate: 2500ft/min - Ascent Speed: 250kts - Cruise Altitude: 35000ft - Cruise Speed: 420kts - Descent Rate: 1500ft/min - Descent Speed: 250kts Options: - Use NATs: yes - Use PACOTS: yes - Use low airways: yes - Use high airways: yes

Route

LBSF ODIKO UR35 DIKNI LGSK

ID Type Via Altitude (ft/m) Position (lat/lon) Dist (leg/tot) Name
O LBSF APT - 0 / 0 42.69713 / 23.41672 - / 0 nm Sofia
ODIKO FIX - 22,300 / 6,797 40.97139 / 23.24194 103 / 103 nm
DIKNI FIX UR35 (AWY-HI) 24,500 / 7,468 40.89917 / 23.20639 4 / 108 nm
O LGSK APT - 0 / 0 39.17710 / 23.50368 104 / 212 nm Skiathos Alexandros Papadiamantis

Altitude Profile

Advertisement - Login to hide

Weather


0- 5 10 15 20 25 30 35+ Temperature / °C

Clouds and Precipitation
Forecast for 2023-11-28 18:00 UTC. Updated 3 hours ago

Ground ~20,000 ft ~40,000 ft Winds

LBSF

Details ICAO LBSF (SOF)
Name Sofia
Region Bulgaria
Timezone Europe/Sofia (UTC+2.0)
Stats Elevation 1,741 ft / 531 m (AMSL)
Location 42.696400° 23.417900°
Runways 1
Magnetic Variation 5.556° E

METAR

LBSF 281830Z 10005KT 070V240 9999 -RA SCT035 BKN052 OVC061 04/01 Q0995 TEMPO RA

Decode

TAF

TAF LBSF 281700Z 2818/2918 09014KT 9999 SCT020 BKN040 TEMPO 2818/2820 21018G30KT BECMG 2820/2822 33014KT TEMPO 2900/2907 5000 RA SCT010 OVC040 PROB40 2904/2907 3000 FZRA BKN010 OVC020 PROB30 TEMPO 2907/2910 3000 RASN BKN010 OVC030

Decode

Departure Runways

ID Width Length Bearing (true/mag) Surface Threshold Overrun Markings Lighting
09 148 ft / 45 m 11,777 ft / 3,590 m 94.64° / 89.08° ASPHALT 978 ft / 298 m 390 ft / 119 m PREC-APP CENTERLINE EDGE THRESHOLD ALSF-I REIL-OMNI
27 148 ft / 45 m 11,777 ft / 3,590 m 274.67° / 269.11° ASPHALT 0 ft / 0 m 397 ft / 121 m PREC-APP CENTERLINE EDGE THRESHOLD ALSF-II TDZ REIL-OMNI

LGSK

Details ICAO LGSK (JSI)
Name Skiathos
Region Greece
Timezone Europe/Athens (UTC+2.0)
Stats Elevation 53 ft / 16 m (AMSL)
Location 39.177400° 23.503700°
Runways 1
Magnetic Variation 5.143° E

METAR

LGSK 281750Z 17012KT 9999 FEW020 18/12 Q1000

Decode

TAF

Not found

Destination Runways

ID Width Length Bearing (true/mag) Surface Threshold Overrun Markings Lighting
01 98 ft / 30 m 5,346 ft / 1,629 m 19.00° / 13.86° ASPHALT 187 ft / 57 m 0 ft / 0 m NONE EDGE THRESHOLD REIL-OMNI
19 98 ft / 30 m 5,346 ft / 1,629 m 199.00° / 193.86° ASPHALT 0 ft / 0 m 0 ft / 0 m NONE EDGE THRESHOLD REIL-OMNI

Popular Alternatives